Hiwassee Observed Data For Previous 48 Hours

Caption
Day and Hour Reservoir Elevation (behind dam)* Tailwater Elevation (below dam)* Average Hourly Discharge*
3/22/2019 2 AM EDT 1,493.21 1,273.88 321
3/22/2019 3 AM EDT 1,493.33 1,273.42 0
3/22/2019 4 AM EDT 1,493.38 1,273.28 0
3/22/2019 5 AM EDT 1,493.50 1,273.06 39
3/22/2019 6 AM EDT 1,493.48 1,274.43 4,367
3/22/2019 7 AM EDT 1,493.39 1,275.92 8,147
3/22/2019 8 AM EDT 1,493.33 1,276.12 9,220
3/22/2019 9 AM EDT 1,493.24 1,276.14 9,192
3/22/2019 10 AM EDT 1,493.14 1,276.27 9,195
3/22/2019 11 AM EDT 1,493.05 1,276.36 9,177
3/22/2019 12 PM EDT 1,492.95 1,276.46 9,195
3/22/2019 1 PM EDT 1,492.88 1,276.57 9,174
3/22/2019 2 PM EDT 1,492.88 1,274.97 4,555
3/22/2019 3 PM EDT 1,492.93 1,275.02 4,397
3/22/2019 4 PM EDT 1,492.88 1,274.99 4,390
3/22/2019 5 PM EDT 1,492.88 1,275.00 4,396
3/22/2019 6 PM EDT 1,492.89 1,274.82 4,393
3/22/2019 7 PM EDT 1,492.89 1,274.78 4,399
3/22/2019 8 PM EDT 1,492.84 1,276.41 8,841
3/22/2019 9 PM EDT 1,492.72 1,276.61 9,214
3/22/2019 10 PM EDT 1,492.64 1,276.68 9,198
3/22/2019 11 PM EDT 1,492.52 1,276.77 9,215
3/23/2019 12 AM EDT 1,492.50 1,275.30 4,535
3/23/2019 1 AM EDT 1,492.57 1,275.42 4,383
3/23/2019 2 AM EDT 1,492.60 1,274.08 170
3/23/2019 3 AM EDT 1,492.72 1,274.27 0
3/23/2019 4 AM EDT 1,492.79 1,273.70 0
3/23/2019 5 AM EDT 1,492.84 1,273.42 0
3/23/2019 6 AM EDT 1,492.99 1,273.01 38
3/23/2019 7 AM EDT 1,492.96 1,274.35 4,343
3/23/2019 8 AM EDT 1,492.84 1,276.11 9,172
3/23/2019 9 AM EDT 1,492.75 1,276.17 9,214
3/23/2019 10 AM EDT 1,492.65 1,276.19 9,204
3/23/2019 11 AM EDT 1,492.58 1,276.29 9,162
3/23/2019 12 PM EDT 1,492.46 1,276.41 9,171
3/23/2019 1 PM EDT 1,492.42 1,274.68 4,538
3/23/2019 2 PM EDT 1,492.56 1,273.28 173
3/23/2019 3 PM EDT 1,492.63 1,273.30 0
3/23/2019 4 PM EDT 1,492.71 1,273.21 0
3/23/2019 5 PM EDT 1,492.80 1,272.58 0
3/23/2019 6 PM EDT 1,492.85 1,271.50 38
3/23/2019 7 PM EDT 1,492.84 1,274.02 4,409
3/23/2019 8 PM EDT 1,492.79 1,275.69 8,088
3/23/2019 9 PM EDT 1,492.72 1,275.68 8,062
3/23/2019 10 PM EDT 1,492.67 1,275.68 8,071
3/23/2019 11 PM EDT 1,492.62 1,275.77 8,059
3/24/2019 12 AM EDT 1,492.59 1,273.99 4,487
3/24/2019 1 AM EDT 1,492.74 1,271.52 170

Elevations are in feet above sea level. Discharges are in cubic feet per second and are reported at the end of the hour.